createdAt,value
2022-09-06T00:00:16.857Z,29.30
2022-09-06T00:02:44.878Z,41.15
2022-09-06T00:05:12.786Z,42.33
2022-09-06T00:07:39.733Z,35.38
2022-09-06T00:10:07.041Z,49.60
2022-09-06T00:12:35.988Z,50.58
2022-09-06T00:15:04.587Z,97.07
2022-09-06T00:17:33.331Z,141.07
2022-09-06T00:20:00.179Z,94.85
2022-09-06T00:22:26.997Z,96.13
2022-09-06T00:24:54.202Z,111.53
2022-09-06T00:27:20.937Z,97.35
2022-09-06T00:29:47.719Z,74.60
2022-09-06T00:32:14.544Z,135.45
2022-09-06T00:34:42.102Z,150.10
2022-09-06T00:37:08.832Z,119.35
2022-09-06T00:39:35.716Z,178.68
2022-09-06T00:42:02.522Z,165.90
2022-09-06T00:44:29.285Z,152.68
2022-09-06T00:46:56.258Z,119.97
2022-09-06T00:49:30.923Z,143.35
2022-09-06T00:52:05.783Z,106.43
2022-09-06T00:54:32.653Z,159.38
2022-09-06T00:56:59.882Z,137.35
2022-09-06T00:59:30.785Z,132.30
2022-09-06T01:01:57.948Z,193.93
2022-09-06T01:04:25.870Z,138.57
2022-09-06T01:07:27.359Z,118.68
2022-09-06T01:10:19.018Z,145.68
2022-09-06T01:13:19.177Z,165.43
2022-09-06T01:16:44.898Z,152.48
2022-09-06T01:20:10.569Z,123.97
2022-09-06T01:23:20.719Z,143.02
2022-09-06T01:27:10.585Z,138.05
2022-09-06T01:30:02.097Z,118.80
2022-09-06T01:33:09.325Z,125.97
2022-09-06T01:36:05.577Z,138.75
2022-09-06T01:38:32.392Z,129.98
2022-09-06T01:40:59.263Z,131.30
2022-09-06T01:43:36.985Z,186.85
2022-09-06T01:46:45.729Z,151.30
2022-09-06T01:49:56.305Z,142.02
2022-09-06T01:52:45.333Z,145.57
2022-09-06T01:55:42.151Z,176.88
2022-09-06T01:58:44.785Z,136.45
2022-09-06T02:01:36.436Z,154.80
2022-09-06T02:04:28.661Z,143.88
2022-09-06T02:07:03.829Z,171.85
2022-09-06T02:09:38.393Z,153.05
2022-09-06T02:12:07.206Z,203.80
2022-09-06T02:14:43.456Z,211.50
2022-09-06T02:17:16.024Z,141.68
2022-09-06T02:20:20.238Z,216.43
2022-09-06T02:22:49.334Z,182.52
2022-09-06T02:25:25.121Z,140.00
2022-09-06T02:27:52.025Z,165.00
2022-09-06T02:30:19.044Z,151.35
2022-09-06T02:36:52.804Z,148.30
2022-09-06T02:39:19.581Z,132.32
2022-09-06T02:41:47.981Z,157.35
2022-09-06T02:44:15.459Z,160.32
2022-09-06T02:46:42.604Z,152.13
2022-09-06T02:49:09.311Z,135.38
2022-09-06T02:51:38.798Z,124.25
2022-09-06T02:54:06.817Z,154.45
2022-09-06T02:56:34.377Z,160.93
2022-09-06T02:59:01.126Z,122.15
2022-09-06T03:01:27.949Z,127.07
2022-09-06T03:03:54.725Z,126.65
2022-09-06T03:06:21.506Z,130.38
2022-09-06T03:08:48.377Z,157.77
2022-09-06T03:11:15.401Z,124.68
2022-09-06T03:13:42.137Z,174.23
2022-09-06T03:16:09.028Z,139.85
2022-09-06T03:18:36.582Z,149.90
2022-09-06T03:21:03.527Z,169.82
2022-09-06T03:23:30.468Z,158.45
2022-09-06T03:25:57.532Z,146.85
2022-09-06T03:28:25.152Z,167.60
2022-09-06T03:30:52.668Z,135.88
2022-09-06T03:33:20.226Z,160.88
2022-09-06T03:35:59.600Z,161.85
2022-09-06T03:38:28.590Z,138.15
2022-09-06T03:40:55.936Z,129.75
2022-09-06T03:43:24.941Z,160.43
2022-09-06T03:45:54.993Z,189.43
2022-09-06T03:48:24.341Z,169.38
2022-09-06T03:50:54.434Z,192.15
2022-09-06T03:53:23.213Z,181.75
2022-09-06T03:55:52.810Z,184.05
2022-09-06T03:58:23.377Z,199.45
2022-09-06T04:01:00.008Z,136.82
2022-09-06T04:03:26.780Z,217.55
2022-09-06T04:05:53.519Z,232.32
2022-09-06T04:08:20.477Z,229.05
2022-09-06T04:10:51.252Z,270.20
2022-09-06T04:13:18.564Z,247.50
2022-09-06T04:15:48.856Z,216.50
2022-09-06T04:18:16.585Z,175.15
2022-09-06T04:20:45.467Z,168.85
2022-09-06T04:23:12.197Z,150.02
2022-09-06T04:25:38.936Z,135.15
2022-09-06T04:28:05.688Z,136.20
2022-09-06T04:30:32.467Z,140.20
2022-09-06T04:32:59.225Z,157.20
2022-09-06T04:35:26.016Z,157.10
2022-09-06T04:37:52.760Z,171.07
2022-09-06T04:40:19.489Z,220.27
2022-09-06T04:42:46.250Z,233.82
2022-09-06T04:45:13.000Z,279.52
2022-09-06T04:47:39.751Z,265.75
2022-09-06T04:50:07.121Z,172.57
2022-09-06T04:52:33.900Z,178.48
2022-09-06T04:55:00.662Z,188.00
2022-09-06T04:57:27.406Z,162.15
2022-09-06T04:59:54.119Z,192.98
2022-09-06T05:02:20.901Z,195.63
2022-09-06T05:04:47.680Z,153.15
2022-09-06T05:07:14.488Z,165.25
2022-09-06T05:09:41.222Z,151.90
2022-09-06T05:12:08.407Z,159.05
2022-09-06T05:14:35.303Z,166.95
2022-09-06T05:17:02.115Z,165.75
2022-09-06T05:19:28.895Z,163.93
2022-09-06T05:21:55.754Z,179.63
2022-09-06T05:24:22.475Z,162.45
2022-09-06T05:26:49.175Z,127.18
2022-09-06T05:29:15.903Z,116.57
2022-09-06T05:31:42.776Z,210.80
2022-09-06T05:34:10.442Z,211.23
2022-09-06T05:36:38.737Z,117.60
2022-09-06T05:39:05.464Z,224.00
2022-09-06T06:03:25.145Z,112.88
2022-09-06T06:05:51.856Z,104.55
2022-09-06T06:08:18.671Z,44.33
2022-09-06T06:10:45.412Z,46.25
2022-09-06T06:13:12.180Z,46.70
2022-09-06T06:15:38.904Z,45.45
2022-09-06T06:18:05.756Z,35.03
2022-09-06T06:20:32.489Z,37.10
2022-09-06T06:22:59.206Z,31.63
2022-09-06T06:25:26.198Z,24.08
2022-09-06T06:27:53.191Z,21.08
2022-09-06T06:30:20.594Z,18.63
2022-09-06T06:32:47.339Z,16.40
2022-09-06T06:35:14.347Z,15.52
2022-09-06T06:37:42.275Z,15.38
2022-09-06T06:40:09.775Z,14.32
2022-09-06T06:42:36.540Z,16.73
2022-09-06T06:45:03.476Z,17.67
2022-09-06T06:47:30.357Z,19.40
2022-09-06T06:49:57.186Z,19.02
2022-09-06T06:52:24.347Z,18.80
2022-09-06T06:54:51.305Z,18.27
2022-09-06T06:57:18.091Z,17.58
2022-09-06T06:59:44.958Z,16.73
2022-09-06T07:02:12.549Z,16.15
2022-09-06T07:04:39.467Z,16.10
2022-09-06T07:12:39.831Z,15.98
2022-09-06T07:15:07.194Z,13.98
2022-09-06T07:17:34.616Z,13.70
2022-09-06T07:20:17.118Z,14.23
2022-09-06T07:22:43.909Z,14.38
2022-09-06T07:25:15.346Z,14.07
2022-09-06T07:30:16.126Z,14.85
2022-09-06T07:32:42.921Z,13.85
2022-09-06T07:35:09.854Z,15.23
2022-09-06T07:37:36.597Z,13.85
2022-09-06T07:40:04.808Z,14.23
2022-09-06T07:42:36.218Z,14.18
2022-09-06T07:45:04.699Z,13.35
2022-09-06T07:53:13.822Z,12.70
2022-09-06T07:55:44.390Z,12.90
2022-09-06T07:58:11.181Z,12.30
2022-09-06T08:00:40.799Z,12.18
2022-09-06T08:03:07.680Z,12.27
2022-09-06T08:11:08.229Z,13.23
2022-09-06T08:13:36.350Z,14.00
2022-09-06T08:16:07.136Z,12.50
2022-09-06T08:21:16.332Z,14.27
2022-09-06T08:24:15.867Z,14.30
2022-09-06T08:26:43.112Z,13.43
2022-09-06T08:29:11.922Z,14.23
2022-09-06T08:31:42.560Z,13.75
2022-09-06T08:36:36.594Z,12.32
2022-09-06T08:39:07.077Z,14.25
2022-09-06T08:42:05.109Z,14.70
2022-09-06T08:47:24.761Z,14.35
2022-09-06T08:50:06.082Z,14.88
2022-09-06T08:53:19.960Z,13.95
2022-09-06T08:55:56.075Z,15.05
2022-09-06T08:59:06.466Z,14.75
2022-09-06T09:02:02.230Z,13.73
2022-09-06T09:04:31.847Z,16.73
2022-09-06T09:07:10.974Z,14.80
2022-09-06T09:09:37.719Z,14.98
2022-09-06T09:12:06.452Z,15.32
2022-09-06T09:14:37.954Z,14.93
2022-09-06T09:17:26.263Z,15.68
2022-09-06T09:19:53.004Z,16.05
2022-09-06T09:22:20.291Z,15.80
2022-09-06T09:24:50.644Z,15.65
2022-09-06T09:32:46.171Z,17.20
2022-09-06T09:35:33.802Z,17.20
2022-09-06T09:38:13.878Z,17.50
2022-09-06T09:40:50.688Z,17.95
2022-09-06T09:43:31.140Z,17.42
2022-09-06T09:46:32.845Z,17.83
2022-09-06T09:49:13.005Z,16.65
2022-09-06T09:52:06.295Z,17.10
2022-09-06T09:54:39.110Z,15.93
2022-09-06T09:57:17.894Z,17.60
2022-09-06T09:59:58.112Z,17.17
2022-09-06T10:02:30.882Z,17.02
2022-09-06T10:05:12.956Z,17.73
2022-09-06T10:07:53.726Z,17.15
2022-09-06T10:10:42.179Z,17.00
2022-09-06T10:13:20.989Z,17.88
2022-09-06T10:15:50.353Z,19.48
2022-09-06T10:18:42.072Z,17.20
2022-09-06T10:21:19.675Z,18.20
2022-09-06T10:26:56.856Z,17.98
2022-09-06T10:29:32.544Z,18.73
2022-09-06T10:32:05.456Z,17.23
2022-09-06T10:35:12.277Z,22.13
2022-09-06T10:37:42.410Z,19.38
2022-09-06T10:40:12.223Z,18.52
2022-09-06T10:42:54.620Z,19.25
2022-09-06T10:45:28.428Z,19.05
2022-09-06T10:48:10.203Z,19.00
2022-09-06T10:50:58.512Z,20.35
2022-09-06T10:53:36.681Z,17.92
2022-09-06T10:56:18.734Z,18.70
2022-09-06T11:02:21.892Z,18.98
2022-09-06T11:10:34.672Z,19.40
2022-09-06T11:13:17.022Z,19.25
2022-09-06T11:16:09.317Z,17.27
2022-09-06T11:18:52.024Z,19.85
2022-09-06T11:21:40.475Z,18.83
2022-09-06T11:24:47.855Z,17.70
2022-09-06T11:27:32.955Z,19.42
2022-09-06T11:30:02.058Z,18.42
2022-09-06T11:32:41.122Z,17.92
2022-09-06T11:35:11.143Z,18.63
2022-09-06T11:37:45.117Z,19.17
2022-09-06T11:42:59.157Z,18.77
2022-09-06T11:45:50.484Z,23.85
2022-09-06T11:48:26.538Z,20.02
2022-09-06T11:50:59.485Z,19.17
2022-09-06T11:53:30.847Z,18.10
2022-09-06T11:56:00.526Z,17.48
2022-09-06T11:58:53.651Z,17.25
2022-09-06T12:01:20.851Z,18.33
2022-09-06T12:06:35.933Z,17.30
2022-09-06T12:09:34.844Z,16.60
2022-09-06T12:12:02.404Z,18.88
2022-09-06T12:14:42.830Z,22.48
2022-09-06T12:19:48.172Z,16.38
2022-09-06T12:22:26.740Z,18.13
2022-09-06T12:25:01.311Z,17.83
2022-09-06T12:27:55.954Z,18.80
2022-09-06T12:30:42.055Z,18.80
2022-09-06T12:33:22.297Z,16.90
2022-09-06T12:35:58.371Z,16.25
2022-09-06T12:38:26.135Z,18.50
2022-09-06T12:40:58.263Z,18.70
2022-09-06T12:43:26.290Z,18.50
2022-09-06T12:45:53.541Z,18.75
2022-09-06T12:48:35.129Z,18.33
2022-09-06T12:51:08.127Z,19.08
2022-09-06T12:53:35.351Z,19.40
2022-09-06T12:56:12.759Z,18.38
2022-09-06T12:58:40.308Z,19.80
2022-09-06T13:01:22.766Z,19.25
2022-09-06T13:04:07.354Z,18.50
2022-09-06T13:06:42.410Z,17.98
2022-09-06T13:09:15.873Z,19.05
2022-09-06T13:11:47.374Z,17.13
2022-09-06T13:14:26.936Z,17.65
2022-09-06T13:16:57.075Z,18.37
2022-09-06T13:19:36.084Z,20.00
2022-09-06T13:22:07.357Z,18.38
2022-09-06T13:24:33.988Z,16.02
2022-09-06T13:27:01.145Z,16.17
2022-09-06T13:29:32.056Z,17.50
2022-09-06T13:32:01.656Z,19.77
2022-09-06T13:34:33.730Z,17.38
2022-09-06T13:37:05.308Z,18.40
2022-09-06T13:39:38.872Z,16.75
2022-09-06T13:42:22.578Z,18.38
2022-09-06T13:44:50.857Z,17.80
2022-09-06T13:47:17.714Z,16.40
2022-09-06T13:49:44.476Z,16.75
2022-09-06T13:52:11.237Z,15.02
2022-09-06T13:54:38.421Z,15.23
2022-09-06T13:57:05.438Z,13.73
2022-09-06T13:59:32.203Z,13.40
2022-09-06T14:02:12.939Z,13.65
2022-09-06T14:07:07.160Z,14.18
2022-09-06T14:09:33.989Z,15.00
2022-09-06T14:12:00.962Z,13.70
2022-09-06T14:14:27.737Z,13.63
2022-09-06T14:16:54.495Z,12.35
2022-09-06T14:19:21.234Z,13.10
2022-09-06T14:21:48.050Z,13.63
2022-09-06T14:24:15.272Z,13.90
2022-09-06T14:26:42.808Z,14.60
2022-09-06T14:29:09.855Z,12.85
2022-09-06T14:31:36.659Z,13.20
2022-09-06T14:34:03.985Z,12.90
2022-09-06T14:36:32.859Z,13.18
2022-09-06T14:39:01.108Z,12.45
2022-09-06T14:41:28.390Z,14.07
2022-09-06T14:43:57.229Z,12.80
2022-09-06T14:46:26.922Z,13.40
2022-09-06T14:49:02.310Z,12.25
2022-09-06T14:51:30.573Z,12.68
2022-09-06T14:54:04.085Z,13.20
2022-09-06T14:56:30.870Z,12.20
2022-09-06T14:58:59.766Z,11.93
2022-09-06T15:01:32.025Z,12.07
2022-09-06T15:04:04.781Z,12.70
2022-09-06T15:06:34.643Z,13.63
2022-09-06T15:09:01.785Z,13.57
2022-09-06T15:11:35.283Z,12.90
2022-09-06T15:14:04.194Z,12.48
2022-09-06T15:16:32.249Z,13.70
2022-09-06T15:18:59.318Z,12.88
2022-09-06T15:21:26.591Z,12.40
2022-09-06T15:23:53.584Z,12.63
2022-09-06T15:26:21.283Z,12.32
2022-09-06T15:28:48.808Z,11.85
2022-09-06T15:31:16.216Z,11.90
2022-09-06T15:33:43.043Z,12.70
2022-09-06T15:36:11.470Z,12.60
2022-09-06T15:38:48.043Z,12.68
2022-09-06T15:41:22.102Z,13.15
2022-09-06T15:43:51.100Z,12.40
2022-09-06T15:46:22.028Z,12.85
2022-09-06T15:51:20.148Z,12.35
2022-09-06T15:53:47.200Z,13.67
2022-09-06T15:56:16.796Z,13.75
2022-09-06T15:58:47.841Z,13.68
2022-09-06T16:01:19.614Z,13.57
2022-09-06T16:03:50.840Z,13.40
2022-09-06T16:09:00.898Z,13.88
2022-09-06T16:11:29.973Z,13.38
2022-09-06T16:13:56.919Z,14.60
2022-09-06T16:16:24.075Z,13.18
2022-09-06T16:18:52.095Z,12.80
2022-09-06T16:21:25.742Z,12.38
2022-09-06T16:23:56.658Z,12.77
2022-09-06T16:28:52.280Z,13.52
2022-09-06T16:31:21.901Z,12.90
2022-09-06T16:33:49.763Z,13.27
2022-09-06T16:36:18.559Z,12.88
2022-09-06T16:38:46.075Z,13.43
2022-09-06T16:41:20.470Z,13.82
2022-09-06T16:43:49.252Z,13.25
2022-09-06T16:46:16.718Z,12.80
2022-09-06T16:48:43.633Z,12.68
2022-09-06T16:51:13.593Z,12.70
2022-09-06T16:53:42.783Z,12.23
2022-09-06T16:56:11.437Z,13.18
2022-09-06T16:58:39.438Z,13.55
2022-09-06T17:01:08.258Z,13.18
2022-09-06T17:03:39.373Z,13.13
2022-09-06T17:08:36.334Z,13.18
2022-09-06T17:11:16.007Z,13.90
2022-09-06T17:13:45.939Z,13.55
2022-09-06T17:16:32.213Z,13.65
2022-09-06T17:19:01.119Z,13.10
2022-09-06T17:21:29.219Z,12.82
2022-09-06T17:23:58.569Z,12.52
2022-09-06T17:26:25.308Z,13.80
2022-09-06T17:28:52.175Z,12.70
2022-09-06T17:31:24.986Z,12.65
2022-09-06T17:33:53.117Z,13.50
2022-09-06T17:36:26.736Z,13.65
2022-09-06T17:39:08.349Z,13.80
2022-09-06T17:41:41.839Z,13.15
2022-09-06T17:44:10.974Z,13.25
2022-09-06T17:46:47.565Z,13.85
2022-09-06T17:49:24.583Z,15.75
2022-09-06T17:51:51.473Z,13.80
2022-09-06T17:54:18.788Z,14.70
2022-09-06T17:56:45.557Z,13.70
2022-09-06T17:59:14.166Z,14.25
2022-09-06T18:01:43.344Z,14.00
2022-09-06T18:04:11.692Z,14.05
2022-09-06T18:06:41.113Z,14.60
2022-09-06T18:09:12.727Z,13.65
2022-09-06T18:11:40.350Z,12.82
2022-09-06T18:14:10.468Z,12.77
2022-09-06T18:16:39.711Z,12.70
2022-09-06T18:19:08.485Z,11.80
2022-09-06T18:21:38.911Z,11.07
2022-09-06T18:24:06.438Z,11.30
2022-09-06T18:26:33.255Z,11.30
2022-09-06T18:29:00.439Z,11.73
2022-09-06T18:31:28.159Z,12.13
2022-09-06T18:33:59.781Z,13.45
2022-09-06T18:36:31.943Z,12.45
2022-09-06T18:39:03.841Z,12.63
2022-09-06T18:41:50.370Z,15.40
2022-09-06T18:44:17.795Z,14.60
2022-09-06T18:46:44.666Z,12.55
2022-09-06T18:49:14.090Z,13.98
2022-09-06T18:51:41.636Z,21.45
2022-09-06T18:54:09.758Z,13.85
2022-09-06T18:56:36.545Z,12.98
2022-09-06T18:59:05.120Z,13.65
2022-09-06T19:01:32.907Z,15.02
2022-09-06T19:04:01.037Z,13.63
2022-09-06T19:06:29.755Z,13.93
2022-09-06T19:09:01.965Z,14.18
2022-09-06T19:11:29.417Z,14.48
2022-09-06T19:13:57.648Z,17.60
2022-09-06T19:16:27.202Z,16.15
2022-09-06T19:18:57.295Z,18.40
2022-09-06T19:21:25.541Z,18.27
2022-09-06T19:23:59.693Z,20.77
2022-09-06T19:26:31.218Z,22.42
2022-09-06T19:31:30.703Z,23.00
2022-09-06T19:33:58.171Z,24.27
2022-09-06T19:36:27.607Z,24.45
2022-09-06T19:39:15.936Z,23.90
2022-09-06T19:41:44.919Z,26.05
2022-09-06T19:44:12.608Z,23.75
2022-09-06T19:46:45.474Z,25.33
2022-09-06T19:49:15.005Z,24.40
2022-09-06T19:51:43.744Z,25.63
2022-09-06T19:54:10.883Z,25.90
2022-09-06T19:56:37.699Z,27.00
2022-09-06T19:59:08.664Z,27.58
2022-09-06T20:01:38.204Z,27.00
2022-09-06T20:04:08.960Z,28.48
2022-09-06T20:06:36.965Z,29.42
2022-09-06T20:09:08.873Z,28.63
2022-09-06T20:11:37.654Z,29.40
2022-09-06T20:14:05.039Z,30.38
2022-09-06T20:16:31.882Z,26.90
2022-09-06T20:18:59.356Z,28.50
2022-09-06T20:21:30.175Z,25.35
2022-09-06T20:23:59.256Z,25.38
2022-09-06T20:26:28.755Z,23.85
2022-09-06T20:29:00.566Z,23.33
2022-09-06T20:31:29.099Z,22.98
2022-09-06T20:33:58.728Z,18.02
2022-09-06T20:36:25.808Z,16.65
2022-09-06T20:38:53.203Z,16.85
2022-09-06T20:41:23.564Z,17.42
2022-09-06T20:43:56.346Z,17.60
2022-09-06T20:46:26.332Z,19.52
2022-09-06T20:48:59.603Z,16.60
2022-09-06T20:51:26.405Z,16.35
2022-09-06T20:53:58.987Z,15.45
2022-09-06T20:56:30.157Z,12.95
2022-09-06T20:59:00.632Z,13.52
2022-09-06T21:01:34.636Z,13.63
2022-09-06T21:04:04.337Z,14.43
2022-09-06T21:06:35.857Z,13.10
2022-09-06T21:09:05.616Z,14.38
2022-09-06T21:11:33.131Z,14.82
2022-09-06T21:13:59.956Z,13.20
2022-09-06T21:16:29.373Z,13.55
2022-09-06T21:19:01.967Z,13.68
2022-09-06T21:21:31.562Z,12.70
2022-09-06T21:24:00.216Z,13.52
2022-09-06T21:26:27.166Z,12.75
2022-09-06T21:28:54.416Z,12.07
2022-09-06T21:31:24.512Z,12.63
2022-09-06T21:33:55.307Z,11.45
2022-09-06T21:36:31.057Z,12.90
2022-09-06T21:39:01.091Z,10.23
2022-09-06T21:41:29.476Z,11.13
2022-09-06T21:43:59.185Z,10.98
2022-09-06T21:46:33.091Z,13.50
2022-09-06T21:49:04.610Z,10.85
2022-09-06T21:51:32.293Z,10.23
2022-09-06T21:53:59.731Z,9.93
2022-09-06T21:56:26.569Z,10.45
2022-09-06T21:58:57.913Z,10.65
2022-09-06T22:03:53.818Z,12.48
2022-09-06T22:06:24.765Z,11.48
2022-09-06T22:08:52.590Z,10.88
2022-09-06T22:11:25.850Z,10.63
2022-09-06T22:13:53.218Z,15.07
2022-09-06T22:16:22.401Z,10.40
2022-09-06T22:18:51.314Z,10.77
2022-09-06T22:21:21.050Z,10.00
2022-09-06T22:23:53.962Z,15.10
2022-09-06T22:26:21.776Z,13.57
2022-09-06T22:28:52.948Z,10.32
2022-09-06T22:31:19.799Z,11.27
2022-09-06T22:33:46.603Z,11.10
2022-09-06T22:36:13.400Z,10.95
2022-09-06T22:38:40.210Z,12.93
2022-09-06T22:41:06.949Z,12.60
2022-09-06T22:43:33.723Z,13.05
2022-09-06T22:46:09.760Z,13.63
2022-09-06T22:48:37.187Z,22.20
2022-09-06T22:51:06.188Z,16.63
2022-09-06T22:53:35.093Z,50.72
2022-09-06T22:56:03.105Z,41.72
2022-09-06T22:58:30.250Z,111.72
2022-09-06T23:01:05.481Z,161.80
2022-09-06T23:03:32.270Z,172.77
2022-09-06T23:06:02.534Z,178.52
2022-09-06T23:08:30.503Z,178.52
2022-09-06T23:10:57.268Z,204.05
2022-09-06T23:13:24.121Z,656.30
2022-09-06T23:15:50.909Z,847.92
2022-09-06T23:18:17.708Z,853.45
2022-09-06T23:20:44.670Z,798.33
2022-09-06T23:23:11.660Z,687.15
2022-09-06T23:25:39.075Z,656.55
2022-09-06T23:28:06.716Z,562.90
2022-09-06T23:30:37.556Z,479.88
2022-09-06T23:33:04.662Z,389.93
2022-09-06T23:35:31.412Z,394.30
2022-09-06T23:37:58.401Z,516.58
2022-09-06T23:40:25.185Z,717.88
2022-09-06T23:42:51.901Z,604.80
2022-09-06T23:45:18.661Z,680.35
2022-09-06T23:47:45.477Z,730.70
2022-09-06T23:50:12.205Z,677.40
2022-09-06T23:52:38.919Z,694.50
2022-09-06T23:55:06.367Z,709.80
2022-09-06T23:57:33.095Z,653.30
